Time;durP1;ratioP1;P1;durP2;ratioP2;P2;SDS_P1;SDS_P2;PMS_P1;PMS_P2;Temp;Humidity;BMP_temperature;BMP_pressure;BME280_temperature;BME280_humidity;BME280_pressure;Samples;Min_cycle;Max_cycle;Signal;HPM_P1;HPM_P2
2023/05/11 00:00:35;;;;;;;23.83;16.30;;;;;;;13.55;88.02;101326.75;5008527;28;20374;-95
2023/05/11 00:03:01;;;;;;;23.35;16.40;;;;;;;13.50;88.08;101318.13;5009042;28;20033;-95
2023/05/11 00:05:26;;;;;;;22.33;15.10;;;;;;;13.74;88.04;101348.03;5005340;28;20025;-93
2023/05/11 00:07:52;;;;;;;22.58;15.32;;;;;;;13.69;87.70;101326.13;5001512;28;20038;-96
2023/05/11 00:10:17;;;;;;;21.80;14.40;;;;;;;13.86;87.38;101344.84;5004842;28;20523;-94
2023/05/11 00:12:42;;;;;;;21.35;15.90;;;;;;;13.79;87.56;101322.97;5004139;28;20087;-93
2023/05/11 00:15:08;;;;;;;22.98;16.42;;;;;;;13.81;87.54;101324.72;5006152;28;20034;-91
2023/05/11 00:17:33;;;;;;;19.98;14.98;;;;;;;13.82;86.93;101331.75;5006166;28;20038;-95
2023/05/11 00:19:58;;;;;;;21.33;14.35;;;;;;;13.79;87.00;101330.94;5005185;28;20575;-93
2023/05/11 00:22:24;;;;;;;19.23;13.10;;;;;;;13.79;86.31;101327.44;5026087;28;20018;-91
2023/05/11 00:24:49;;;;;;;21.92;15.73;;;;;;;13.82;86.81;101326.44;5009160;28;20034;-94
2023/05/11 00:27:15;;;;;;;19.98;14.13;;;;;;;13.66;87.06;101324.50;5009525;28;20041;-95
2023/05/11 00:29:40;;;;;;;21.40;13.85;;;;;;;13.57;86.76;101329.34;5008240;28;20561;-93
2023/05/11 00:32:05;;;;;;;19.38;13.77;;;;;;;13.58;86.42;101331.09;5010302;28;20042;-95
2023/05/11 00:34:30;;;;;;;27.55;14.68;;;;;;;13.49;86.14;101329.69;5006349;28;20566;-96
2023/05/11 00:36:56;;;;;;;20.02;14.15;;;;;;;13.53;87.16;101334.81;5030483;28;20104;-96
2023/05/11 00:39:21;;;;;;;19.00;14.68;;;;;;;13.59;88.08;101338.13;5011855;28;20029;-95
2023/05/11 00:41:47;;;;;;;26.13;16.83;;;;;;;13.61;88.08;101342.41;5008163;28;20021;-94
2023/05/11 00:44:12;;;;;;;20.95;14.95;;;;;;;13.61;88.18;101337.09;5005068;28;20499;-94
2023/05/11 00:46:38;;;;;;;22.17;15.73;;;;;;;13.58;87.81;101341.72;5004701;28;20124;-96
2023/05/11 00:49:03;;;;;;;21.70;15.25;;;;;;;13.56;88.11;101341.75;5004424;28;20038;-94
2023/05/11 00:51:30;;;;;;;22.83;14.98;;;;;;;13.59;88.15;101341.63;5008364;28;20041;-94
2023/05/11 00:53:57;;;;;;;19.42;14.80;;;;;;;13.61;87.92;101347.72;5011843;28;20026;-95
2023/05/11 00:56:22;;;;;;;25.63;16.35;;;;;;;13.49;88.51;101351.81;5019338;28;20519;-94
2023/05/11 00:58:48;;;;;;;23.48;16.70;;;;;;;13.48;88.45;101362.50;5016602;28;20021;-96
2023/05/11 01:01:16;;;;;;;24.08;16.13;;;;;;;13.45;89.39;101357.31;5010800;28;20045;-94
2023/05/11 01:03:42;;;;;;;26.50;16.33;;;;;;;13.60;88.38;101353.97;5009765;28;20026;-93
2023/05/11 01:06:20;;;;;;;23.25;15.98;;;;;;;13.48;89.79;101359.84;5011468;28;20034;-94
2023/05/11 01:09:11;;;;;;;26.13;17.30;;;;;;;13.45;89.79;101346.69;5012219;28;20033;-95
2023/05/11 01:12:03;;;;;;;27.02;18.15;;;;;;;13.54;89.05;101356.91;5009247;28;20060;-95
2023/05/11 01:15:10;;;;;;;27.40;17.40;;;;;;;13.51;89.24;101357.03;5008012;28;20722;-95
2023/05/11 01:17:45;;;;;;;24.55;17.48;;;;;;;13.43;89.36;101348.53;5035078;28;20493;-95
2023/05/11 01:20:16;;;;;;;26.75;17.88;;;;;;;13.43;90.00;101353.84;5015437;28;20632;-95
2023/05/11 01:23:06;;;;;;;26.88;17.02;;;;;;;13.48;89.07;101355.41;5027170;28;20579;-94
2023/05/11 01:26:11;;;;;;;29.65;18.27;;;;;;;13.58;89.44;101369.13;5040413;28;20036;-96
2023/05/11 01:29:18;;;;;;;27.45;17.20;;;;;;;13.56;89.16;101363.00;5011384;28;20057;-96
2023/05/11 01:31:47;;;;;;;31.10;18.08;;;;;;;13.55;89.29;101363.09;5015909;28;20072;-94
2023/05/11 01:34:21;;;;;;;28.77;18.95;;;;;;;13.47;89.53;101358.97;5031969;28;20503;-95
2023/05/11 01:36:59;;;;;;;27.38;17.13;;;;;;;13.51;89.58;101357.91;5013352;28;20477;-95
2023/05/11 01:39:31;;;;;;;33.67;19.73;;;;;;;13.43;89.33;101343.22;5015534;28;20034;-94
2023/05/11 01:41:57;;;;;;;;;;;;;;;13.71;88.32;101358.84;5020617;28;20370;-96
2023/05/11 01:44:27;;;;;;;30.95;18.23;;;;;;;13.56;88.79;101348.88;5029738;28;19924;-93
2023/05/11 01:46:53;;;;;;;30.27;19.05;;;;;;;13.58;88.67;101362.97;5016221;28;20064;-94
2023/05/11 01:49:20;;;;;;;29.48;18.65;;;;;;;13.58;88.68;101347.88;5018423;28;20049;-94
2023/05/11 01:51:48;;;;;;;33.38;19.88;;;;;;;13.48;88.66;101349.22;5007403;28;20622;-94
2023/05/11 01:54:16;;;;;;;33.47;19.35;;;;;;;13.59;88.21;101348.75;5008985;28;20026;-95
2023/05/11 01:56:42;;;;;;;34.33;19.20;;;;;;;13.65;87.95;101356.44;5008466;28;20045;-96
2023/05/11 01:59:08;;;;;;;28.33;18.63;;;;;;;13.66;87.96;101358.16;5009585;28;20170;-94
2023/05/11 02:01:35;;;;;;;31.50;18.83;;;;;;;13.64;87.89;101360.88;5005740;28;20018;-95
2023/05/11 02:04:03;;;;;;;31.35;18.38;;;;;;;13.60;87.61;101350.47;5006802;28;20061;-95
2023/05/11 02:06:31;;;;;;;33.28;19.77;;;;;;;13.69;87.83;101363.34;5007175;28;20034;-94
2023/05/11 02:08:59;;;;;;;33.00;18.70;;;;;;;13.63;87.25;101359.16;5004701;28;21218;-96
2023/05/11 02:11:26;;;;;;;29.33;18.92;;;;;;;13.67;87.30;101363.41;5007273;28;20481;-94
2023/05/11 02:13:55;;;;;;;27.60;16.05;;;;;;;13.61;87.01;101346.88;5006325;28;20036;-95
2023/05/11 02:16:22;;;;;;;33.92;19.27;;;;;;;13.66;87.44;101353.72;5002578;28;20032;-92
2023/05/11 02:18:48;;;;;;;30.05;19.33;;;;;;;13.69;87.36;101364.19;5017713;28;20032;-94
2023/05/11 02:21:15;;;;;;;33.00;19.63;;;;;;;13.76;87.24;101352.38;5017916;28;20029;-94
2023/05/11 02:23:42;;;;;;;32.78;18.65;;;;;;;13.73;86.36;101349.84;5007120;28;20030;-95
2023/05/11 02:26:08;;;;;;;34.30;19.73;;;;;;;13.74;86.59;101340.06;5007591;28;20030;-94
2023/05/11 02:28:34;;;;;;;31.63;18.13;;;;;;;13.76;85.29;101343.53;5006445;28;20033;-92
2023/05/11 02:31:05;;;;;;;31.38;19.17;;;;;;;13.68;86.31;101341.22;5012072;28;20036;-93
2023/05/11 02:33:34;;;;;;;30.70;19.55;;;;;;;13.57;86.52;101343.50;5004446;28;20040;-95
2023/05/11 02:36:01;;;;;;;30.35;18.27;;;;;;;13.56;86.13;101359.50;5028743;28;20099;-95
2023/05/11 02:38:33;;;;;;;31.83;19.75;;;;;;;13.52;85.86;101356.09;5029201;28;20025;-94
2023/05/11 02:41:03;;;;;;;30.45;18.63;;;;;;;13.54;86.61;101354.25;5006771;28;20476;-94
2023/05/11 02:43:35;;;;;;;31.33;19.80;;;;;;;13.50;86.64;101347.34;5008103;28;20083;-95
2023/05/11 02:46:04;;;;;;;29.88;17.95;;;;;;;13.52;86.42;101348.13;5006576;28;20053;-95
2023/05/11 02:48:36;;;;;;;30.02;18.10;;;;;;;13.53;86.17;101350.75;5018660;28;20056;-93
2023/05/11 02:51:06;;;;;;;28.98;18.58;;;;;;;13.53;85.20;101353.41;5020307;28;20519;-96
2023/05/11 02:53:33;;;;;;;34.78;21.60;;;;;;;13.47;85.96;101353.66;5005028;28;20022;-94
2023/05/11 02:55:59;;;;;;;35.20;20.48;;;;;;;13.42;86.07;101346.81;5007495;28;20889;-95
2023/05/11 02:58:25;;;;;;;30.52;17.90;;;;;;;13.42;85.51;101346.81;5025768;28;20021;-92
2023/05/11 03:00:50;;;;;;;30.88;18.20;;;;;;;13.34;85.01;101333.91;5003481;28;20037;-95
2023/05/11 03:03:16;;;;;;;30.77;19.65;;;;;;;13.46;85.72;101348.41;5022545;28;20024;-95
2023/05/11 03:05:41;;;;;;;31.25;18.60;;;;;;;13.51;85.32;101359.69;5005883;28;21725;-93
2023/05/11 03:08:07;;;;;;;33.00;21.02;;;;;;;13.49;86.23;101351.81;5024996;28;20025;-95
2023/05/11 03:10:33;;;;;;;37.28;22.90;;;;;;;13.47;86.89;101348.34;5023791;28;20040;-94
2023/05/11 03:12:59;;;;;;;38.53;22.02;;;;;;;13.53;86.95;101357.84;5024546;28;20113;-94
2023/05/11 03:15:25;;;;;;;35.92;22.08;;;;;;;13.56;86.37;101355.03;5006046;28;20029;-94
2023/05/11 03:17:52;;;;;;;37.15;21.75;;;;;;;13.58;86.35;101365.63;5012764;28;20044;-94
2023/05/11 03:20:21;;;;;;;35.47;20.77;;;;;;;13.49;86.23;101345.63;5029469;28;20124;-94
2023/05/11 03:22:48;;;;;;;38.30;22.80;;;;;;;13.52;86.80;101359.66;5032316;28;20029;-94
2023/05/11 03:25:15;;;;;;;37.33;20.98;;;;;;;13.56;86.97;101363.00;5017754;28;20078;-94
2023/05/11 03:27:42;;;;;;;38.75;21.63;;;;;;;13.45;86.75;101344.03;5028918;28;20426;-95
2023/05/11 03:30:10;;;;;;;38.65;22.23;;;;;;;13.45;86.91;101342.25;5028822;28;20064;-95
2023/05/11 03:32:35;;;;;;;41.40;22.25;;;;;;;13.46;86.33;101345.75;5031251;28;20037;-94
2023/05/11 03:35:01;;;;;;;39.05;23.70;;;;;;;13.46;86.40;101348.41;5026206;28;20040;-94
2023/05/11 03:37:29;;;;;;;42.30;22.67;;;;;;;13.42;86.48;101350.34;5021347;28;20025;-95
2023/05/11 03:39:58;;;;;;;35.08;21.52;;;;;;;13.37;86.71;101356.78;5037206;28;20026;-94
2023/05/11 03:42:28;;;;;;;44.92;24.02;;;;;;;13.39;87.13;101363.78;5010755;28;20148;-93
2023/05/11 03:44:57;;;;;;;46.80;26.38;;;;;;;13.32;87.29;101359.63;5025043;28;20048;-95
2023/05/11 03:47:27;;;;;;;44.63;25.30;;;;;;;13.26;87.69;101354.59;5030333;28;20032;-94
2023/05/11 03:49:54;;;;;;;46.47;25.30;;;;;;;13.29;88.19;101357.13;5007711;28;20157;-94
2023/05/11 03:52:20;;;;;;;47.35;26.35;;;;;;;13.28;87.89;101358.03;5008623;28;20041;-96
2023/05/11 03:54:46;;;;;;;41.28;24.52;;;;;;;13.31;87.95;101357.06;5008583;28;20021;-95
2023/05/11 03:57:13;;;;;;;44.78;24.25;;;;;;;13.33;87.85;101365.81;5002255;28;20086;-95
2023/05/11 03:59:38;;;;;;;44.65;23.45;;;;;;;13.25;88.02;101344.91;5007659;28;20044;-95
2023/05/11 04:02:04;;;;;;;44.67;25.10;;;;;;;13.36;88.02;101355.94;5009667;28;20014;-94
2023/05/11 04:04:30;;;;;;;39.58;24.63;;;;;;;13.37;87.21;101352.34;5013944;28;20038;-95
2023/05/11 04:06:56;;;;;;;39.13;23.35;;;;;;;13.37;87.32;101346.16;5014399;28;20060;-95
2023/05/11 04:09:22;;;;;;;44.80;24.20;;;;;;;13.37;87.56;101356.78;5015658;28;20034;-93
2023/05/11 04:11:47;;;;;;;51.67;27.15;;;;;;;13.36;87.55;101349.75;5007029;28;20030;-93
2023/05/11 04:14:12;;;;;;;44.72;25.70;;;;;;;13.34;88.20;101364.91;5009922;28;20443;-95
2023/05/11 04:16:38;;;;;;;42.75;25.95;;;;;;;13.24;88.09;101354.69;5007061;28;20024;-96
2023/05/11 04:19:03;;;;;;;46.58;25.75;;;;;;;13.28;88.47;101364.22;5012398;28;20415;-94
2023/05/11 04:21:28;;;;;;;42.17;23.45;;;;;;;13.10;89.07;101359.66;5013394;28;20115;-96
2023/05/11 04:23:53;;;;;;;49.47;26.90;;;;;;;13.07;89.10;101359.81;5019244;28;20033;-94
2023/05/11 04:26:19;;;;;;;42.40;24.05;;;;;;;13.05;89.46;101348.38;5011298;28;20025;-95
2023/05/11 04:28:45;;;;;;;46.90;25.88;;;;;;;13.09;89.33;101367.69;5009044;28;20405;-94
2023/05/11 04:31:10;;;;;;;45.25;26.38;;;;;;;13.02;89.20;101362.66;5003754;28;20116;-94
2023/05/11 04:33:35;;;;;;;50.05;26.63;;;;;;;13.00;89.18;101358.31;5008400;28;20034;-93
2023/05/11 04:36:00;;;;;;;51.92;26.90;;;;;;;13.08;89.08;101363.31;5029968;28;20025;-94
2023/05/11 04:38:27;;;;;;;45.47;25.50;;;;;;;13.15;88.40;101360.34;5005000;28;20041;-93
2023/05/11 04:40:52;;;;;;;49.65;26.48;;;;;;;13.19;88.43;101359.25;5004847;28;20112;-95
2023/05/11 04:43:17;;;;;;;46.72;26.95;;;;;;;13.22;88.18;101364.47;5006679;28;20768;-93
2023/05/11 04:45:48;;;;;;;57.08;27.88;;;;;;;13.20;88.35;101355.69;5004645;28;20041;-94
2023/05/11 04:48:13;;;;;;;49.83;27.98;;;;;;;13.18;88.08;101362.84;5004264;28;20022;-96
2023/05/11 04:50:38;;;;;;;48.10;27.58;;;;;;;13.12;87.74;101357.81;5021198;28;20079;-94
2023/05/11 04:53:03;;;;;;;49.90;28.15;;;;;;;13.09;87.94;101359.72;5002610;28;20025;-94
2023/05/11 04:55:29;;;;;;;49.10;26.52;;;;;;;12.99;88.20;101361.91;5003374;28;20086;-91
2023/05/11 04:57:54;;;;;;;50.40;26.65;;;;;;;12.99;88.10;101373.38;5001048;28;20049;-95
2023/05/11 05:00:20;;;;;;;50.90;27.25;;;;;;;13.06;88.54;101378.47;5006048;28;20029;-94
2023/05/11 05:02:45;;;;;;;48.78;26.55;;;;;;;13.08;88.73;101381.91;5025423;28;20469;-93
2023/05/11 05:05:10;;;;;;;49.25;27.30;;;;;;;13.13;88.31;101382.56;5009091;28;20036;-94
2023/05/11 05:07:36;;;;;;;62.97;29.38;;;;;;;13.17;87.97;101387.69;5023215;28;20092;-92
2023/05/11 05:10:04;;;;;;;67.03;30.92;;;;;;;13.19;88.52;101391.13;5023420;28;20176;-92
2023/05/11 05:12:29;;;;;;;54.22;30.10;;;;;;;13.20;88.27;101398.19;5021929;28;20497;-93
2023/05/11 05:14:54;;;;;;;59.28;31.63;;;;;;;13.14;88.27;101386.94;5023227;28;20026;-93
2023/05/11 05:17:20;;;;;;;63.05;31.58;;;;;;;13.15;88.46;101396.63;5027810;28;20029;-95
2023/05/11 05:19:45;;;;;;;59.53;30.75;;;;;;;13.11;88.96;101395.06;5020615;28;20029;-94
2023/05/11 05:22:10;;;;;;;63.58;32.05;;;;;;;13.18;88.71;101408.00;5011395;28;20104;-92
2023/05/11 05:24:35;;;;;;;67.63;30.75;;;;;;;13.13;88.91;101401.16;5030819;28;20037;-93
2023/05/11 05:27:01;;;;;;;61.42;31.38;;;;;;;13.27;88.18;101399.66;5014532;28;20498;-93
2023/05/11 05:29:26;;;;;;;65.47;32.22;;;;;;;13.34;87.73;101402.94;5039650;28;20510;-94
2023/05/11 05:31:51;;;;;;;60.70;29.70;;;;;;;13.47;87.56;101397.94;5015439;28;20049;-93
2023/05/11 05:34:17;;;;;;;65.22;30.98;;;;;;;13.31;87.78;101399.56;5028946;28;20030;-95
2023/05/11 05:36:42;;;;;;;66.43;31.83;;;;;;;13.26;88.00;101402.41;5036090;28;20052;-93
2023/05/11 05:39:10;;;;;;;60.67;30.88;;;;;;;13.33;88.79;101409.16;5032473;28;20017;-94
2023/05/11 05:41:35;;;;;;;61.05;33.42;;;;;;;13.36;88.24;101405.53;5041638;28;20120;-95
2023/05/11 05:44:01;;;;;;;63.25;33.50;;;;;;;13.35;88.02;101403.81;5033102;28;20104;-93
2023/05/11 05:46:26;;;;;;;61.45;30.45;;;;;;;13.46;87.90;101414.81;5044093;28;20464;-95
2023/05/11 05:48:52;;;;;;;60.30;30.10;;;;;;;13.67;86.57;101413.03;5029737;28;20189;-94
2023/05/11 05:51:17;;;;;;;54.42;29.05;;;;;;;13.71;86.67;101412.84;5029578;28;20119;-93
2023/05/11 05:53:42;;;;;;;52.05;28.80;;;;;;;13.77;85.91;101414.34;5029275;28;20029;-96
2023/05/11 05:56:07;;;;;;;56.83;28.83;;;;;;;13.90;85.77;101412.03;5041167;28;20445;-95
2023/05/11 05:58:33;;;;;;;51.80;28.17;;;;;;;13.94;85.81;101413.59;5013313;28;20057;-94
2023/05/11 06:00:59;;;;;;;54.42;29.63;;;;;;;14.10;85.76;101414.63;5019333;28;20037;-95
2023/05/11 06:03:25;;;;;;;58.67;30.77;;;;;;;14.26;85.48;101436.06;5014375;28;20499;-94
2023/05/11 06:05:50;;;;;;;52.92;28.63;;;;;;;14.28;85.11;101427.09;5025042;28;20088;-92
2023/05/11 06:08:15;;;;;;;55.47;28.73;;;;;;;14.29;84.45;101431.47;5011768;28;20033;-93
2023/05/11 06:10:40;;;;;;;52.90;29.25;;;;;;;14.36;83.98;101425.84;5032390;28;20034;-92
2023/05/11 06:13:07;;;;;;;51.92;28.77;;;;;;;14.50;84.17;101434.97;5031205;28;20069;-94
2023/05/11 06:15:32;;;;;;;53.25;30.17;;;;;;;14.55;84.36;101426.78;5030986;28;20035;-94
2023/05/11 06:17:57;;;;;;;61.92;28.90;;;;;;;14.61;82.46;101433.59;5029138;28;20116;-94
2023/05/11 06:20:23;;;;;;;55.53;28.23;;;;;;;14.60;82.81;101430.06;5015924;28;20021;-93
2023/05/11 06:22:48;;;;;;;54.13;29.48;;;;;;;14.64;84.11;101439.66;5011257;28;20017;-93
2023/05/11 06:25:13;;;;;;;59.42;30.52;;;;;;;14.59;84.06;101431.00;5007247;28;20021;-93
2023/05/11 06:27:39;;;;;;;56.92;30.33;;;;;;;14.64;82.35;101436.97;5013485;28;20056;-92
2023/05/11 06:30:05;;;;;;;64.88;32.45;;;;;;;14.66;83.13;101428.91;5032827;28;20028;-91
2023/05/11 06:32:32;;;;;;;60.58;30.73;;;;;;;14.65;82.94;101443.16;5029854;28;20519;-94
2023/05/11 06:34:57;;;;;;;64.95;32.30;;;;;;;14.73;82.57;101439.19;5025792;28;20037;-91
2023/05/11 06:37:23;;;;;;;66.40;32.70;;;;;;;14.85;83.57;101447.53;5029238;28;20029;-94
2023/05/11 06:39:48;;;;;;;66.05;33.08;;;;;;;14.83;82.19;101438.72;5033861;28;20060;-92
2023/05/11 06:42:13;;;;;;;63.50;33.15;;;;;;;14.83;80.80;101444.06;5028917;28;20029;-93
2023/05/11 06:44:40;;;;;;;64.93;32.38;;;;;;;14.82;80.46;101442.34;5035659;28;20033;-92
2023/05/11 06:47:06;;;;;;;60.30;32.33;;;;;;;14.83;81.26;101452.03;5022378;28;20022;-93
2023/05/11 06:49:31;;;;;;;67.85;33.75;;;;;;;14.83;81.58;101450.28;5008251;28;20056;-92
2023/05/11 06:51:56;;;;;;;63.35;32.08;;;;;;;14.90;81.88;101446.34;5003151;28;20445;-92
2023/05/11 06:54:22;;;;;;;70.07;35.35;;;;;;;14.86;80.88;101444.78;4981448;28;20501;-91
2023/05/11 06:56:47;;;;;;;65.00;33.40;;;;;;;14.87;81.95;101450.97;5000839;28;20026;-93
2023/05/11 06:59:12;;;;;;;64.43;33.65;;;;;;;14.86;81.56;101452.75;4984239;28;20067;-93
2023/05/11 07:01:38;;;;;;;70.18;34.47;;;;;;;14.85;82.21;101460.84;4999768;28;20026;-92
2023/05/11 07:04:03;;;;;;;64.30;32.38;;;;;;;14.72;81.50;101449.91;5002470;28;20621;-92
2023/05/11 07:06:28;;;;;;;67.75;34.85;;;;;;;14.77;81.32;101451.41;4999823;28;20033;-92
2023/05/11 07:08:55;;;;;;;65.70;32.75;;;;;;;14.85;81.57;101456.38;5001451;28;20034;-93
2023/05/11 07:11:20;;;;;;;67.00;34.95;;;;;;;14.78;80.68;101457.59;5005748;28;20030;-93
2023/05/11 07:13:46;;;;;;;68.32;33.78;;;;;;;14.89;80.89;101457.09;5002503;28;20041;-92
2023/05/11 07:16:11;;;;;;;66.07;32.60;;;;;;;14.92;82.06;101460.47;4984471;28;20026;-93
2023/05/11 07:18:37;;;;;;;73.65;34.42;;;;;;;15.01;82.69;101459.16;4996060;28;20022;-93
2023/05/11 07:21:02;;;;;;;63.53;33.30;;;;;;;15.03;81.52;101459.94;4990757;28;20557;-93
2023/05/11 07:23:27;;;;;;;63.00;33.95;;;;;;;15.20;80.51;101465.31;4990758;28;20274;-93
2023/05/11 07:25:56;;;;;;;68.28;34.55;;;;;;;15.25;81.32;101463.28;4993293;28;20035;-92
2023/05/11 07:28:21;;;;;;;65.65;34.30;;;;;;;15.41;79.56;101457.19;5009625;28;20404;-92
2023/05/11 07:30:47;;;;;;;68.22;34.55;;;;;;;15.25;80.21;101467.75;5010954;28;20120;-93
2023/05/11 07:33:12;;;;;;;58.97;31.92;;;;;;;15.21;80.24;101463.50;4988031;28;20029;-92
2023/05/11 07:35:37;;;;;;;67.32;33.38;;;;;;;15.17;79.72;101457.47;5008992;28;20040;-92
2023/05/11 07:38:04;;;;;;;53.88;29.77;;;;;;;15.26;79.98;101470.34;4989003;28;20080;-93
2023/05/11 07:40:29;;;;;;;52.85;31.45;;;;;;;15.26;79.17;101470.34;4992170;28;20041;-94
2023/05/11 07:42:55;;;;;;;56.83;31.13;;;;;;;15.46;79.40;101468.47;5005464;28;20022;-91
2023/05/11 07:45:20;;;;;;;56.25;30.95;;;;;;;15.50;78.85;101462.03;5002170;28;20038;-93
2023/05/11 07:47:45;;;;;;;63.28;31.95;;;;;;;15.42;78.35;101469.56;5002015;28;20121;-92
2023/05/11 07:50:11;;;;;;;58.83;31.50;;;;;;;15.46;79.78;101468.47;5012197;28;20049;-91
2023/05/11 07:52:37;;;;;;;54.15;31.08;;;;;;;15.55;77.50;101457.34;5005486;28;20025;-92
2023/05/11 07:55:02;;;;;;;54.85;31.17;;;;;;;15.68;77.59;101463.81;5009935;28;20038;-90
2023/05/11 07:57:27;;;;;;;53.80;30.00;;;;;;;15.84;77.37;101471.00;5011328;28;20021;-92
2023/05/11 07:59:53;;;;;;;63.17;30.50;;;;;;;15.90;77.81;101460.00;4986001;28;20041;-92
2023/05/11 08:02:18;;;;;;;64.28;32.95;;;;;;;15.91;77.88;101467.09;5011178;28;20029;-93
2023/05/11 08:04:44;;;;;;;68.90;36.38;;;;;;;15.84;76.20;101469.19;4988848;28;20492;-92
2023/05/11 08:07:09;;;;;;;69.30;37.17;;;;;;;15.72;76.37;101477.84;5001593;28;20037;-92
2023/05/11 08:09:35;;;;;;;76.55;37.45;;;;;;;15.67;76.96;101475.41;5004446;28;20042;-94
2023/05/11 08:12:01;;;;;;;84.03;39.40;;;;;;;15.45;78.04;101472.94;4987548;28;20396;-93
2023/05/11 08:14:26;;;;;;;82.18;38.75;;;;;;;15.62;77.99;101476.53;5007199;28;20110;-92
2023/05/11 08:16:52;;;;;;;71.85;37.40;;;;;;;15.61;77.65;101485.47;5016499;28;20064;-92
2023/05/11 08:19:17;;;;;;;77.53;37.63;;;;;;;15.69;78.04;101483.31;4995729;28;20088;-92
2023/05/11 08:21:44;;;;;;;72.28;34.80;;;;;;;15.77;77.30;101482.00;5008496;28;20030;-93
2023/05/11 08:24:10;;;;;;;70.40;34.45;;;;;;;15.87;77.00;101482.38;5008315;28;20080;-92
2023/05/11 08:26:35;;;;;;;65.03;31.98;;;;;;;15.91;76.28;101480.41;5003295;28;20038;-94
2023/05/11 08:29:00;;;;;;;75.15;35.80;;;;;;;15.77;76.63;101471.34;5007119;28;20073;-92
2023/05/11 08:31:25;;;;;;;70.53;33.80;;;;;;;15.91;78.64;101473.28;5010105;28;20038;-91
2023/05/11 08:33:51;;;;;;;78.43;39.60;;;;;;;15.91;76.83;101480.41;4991640;28;20034;-92
2023/05/11 08:36:16;;;;;;;79.10;36.00;;;;;;;15.74;77.16;101482.13;5008686;28;20030;-92
2023/05/11 08:38:41;;;;;;;78.65;37.17;;;;;;;15.63;77.25;101489.81;4995403;28;20036;-91
2023/05/11 08:41:07;;;;;;;76.88;36.65;;;;;;;15.50;76.47;101465.56;5010941;28;20026;-92
2023/05/11 08:43:38;;;;;;;81.90;37.10;;;;;;;15.53;76.89;101484.09;5008841;28;20092;-94
2023/05/11 08:46:08;;;;;;;80.03;37.20;;;;;;;15.59;76.74;101472.25;5010924;28;20044;-93
2023/05/11 08:48:34;;;;;;;78.93;35.95;;;;;;;15.80;75.56;101484.47;5016633;28;20296;-94
2023/05/11 08:51:02;;;;;;;80.93;37.03;;;;;;;16.00;74.77;101479.94;5034588;28;20083;-94
2023/05/11 08:53:27;;;;;;;80.45;36.55;;;;;;;16.23;75.65;101468.91;5023797;28;20112;-91
2023/05/11 08:55:56;;;;;;;79.40;36.60;;;;;;;16.38;73.49;101464.53;5043766;28;20474;-90
2023/05/11 08:58:22;;;;;;;75.72;34.15;;;;;;;16.53;71.53;101477.03;5032726;28;20053;-93
2023/05/11 09:00:48;;;;;;;80.57;36.65;;;;;;;16.47;73.54;101485.41;5033132;28;20428;-93
2023/05/11 09:03:16;;;;;;;78.82;37.10;;;;;;;16.47;73.81;101488.06;5011385;28;20476;-93
2023/05/11 09:05:44;;;;;;;73.70;35.78;;;;;;;16.63;73.32;101484.53;5028415;28;20025;-93
2023/05/11 09:08:11;;;;;;;74.68;37.67;;;;;;;16.68;72.60;101494.00;5015722;28;20219;-93
2023/05/11 09:10:37;;;;;;;77.70;37.17;;;;;;;16.74;72.49;101491.06;5030437;28;20029;-94
2023/05/11 09:13:02;;;;;;;80.18;37.83;;;;;;;16.58;71.96;101474.97;5031114;28;20037;-92
2023/05/11 09:15:27;;;;;;;79.93;37.45;;;;;;;16.64;71.64;101484.44;5032749;28;20018;-93
2023/05/11 09:17:53;;;;;;;78.90;37.65;;;;;;;16.56;71.69;101492.03;5028175;28;20033;-93
2023/05/11 09:20:27;;;;;;;78.38;37.38;;;;;;;16.69;71.74;101497.53;5019160;28;20104;-93
2023/05/11 09:22:53;;;;;;;77.70;38.83;;;;;;;16.70;70.80;101502.81;5029725;28;20017;-95
2023/05/11 09:25:18;;;;;;;75.30;36.80;;;;;;;16.73;70.60;101488.47;5028185;28;20524;-94
2023/05/11 09:27:44;;;;;;;75.28;37.67;;;;;;;16.79;70.94;101494.34;5013407;28;20026;-92
2023/05/11 09:30:21;;;;;;;76.47;36.65;;;;;;;16.72;70.67;101492.09;5014173;28;20029;-94
2023/05/11 09:32:55;;;;;;;76.53;39.85;;;;;;;16.63;72.50;101493.41;5028165;28;20473;-93
2023/05/11 09:35:25;;;;;;;81.13;38.92;;;;;;;16.73;70.27;101496.47;5023823;28;20072;-94
2023/05/11 09:38:05;;;;;;;76.85;38.10;;;;;;;16.94;70.43;101486.41;5031547;28;20108;-94
2023/05/11 09:40:32;;;;;;;79.25;37.70;;;;;;;17.21;69.58;101484.84;5013906;28;20069;-93
2023/05/11 09:42:59;;;;;;;74.03;36.10;;;;;;;17.53;66.99;101488.31;5014633;28;20388;-93
2023/05/11 09:45:41;;;;;;;74.90;37.50;;;;;;;17.81;68.01;101492.03;5032110;28;20584;-95
2023/05/11 09:48:17;;;;;;;76.65;37.13;;;;;;;17.93;67.61;101493.13;5018491;28;20025;-93
2023/05/11 09:50:42;;;;;;;69.80;35.00;;;;;;;18.31;66.76;101498.78;5010700;28;20030;-93
2023/05/11 09:53:08;;;;;;;71.63;35.05;;;;;;;18.68;65.71;101489.28;5003784;28;20392;-93
2023/05/11 09:55:33;;;;;;;69.22;34.15;;;;;;;18.80;63.26;101498.41;5024254;28;20469;-94
2023/05/11 09:57:59;;;;;;;68.38;34.88;;;;;;;18.23;64.01;101488.56;5010181;28;20376;-94
2023/05/11 10:00:25;;;;;;;74.40;36.45;;;;;;;17.91;66.23;101501.25;5029705;28;20021;-94
2023/05/11 10:03:04;;;;;;;71.30;34.75;;;;;;;18.00;65.24;101508.72;5028088;28;20025;-94
2023/05/11 10:05:32;;;;;;;66.55;34.50;;;;;;;17.88;65.55;101497.88;5032755;28;20056;-94
2023/05/11 10:08:06;;;;;;;72.78;36.50;;;;;;;18.14;68.20;101493.59;5032055;28;22468;-92
2023/05/11 10:10:33;;;;;;;74.45;37.05;;;;;;;18.17;64.46;101493.41;5021395;28;20033;-93
2023/05/11 10:13:00;;;;;;;76.50;36.85;;;;;;;18.39;63.72;101484.94;5011250;28;20017;-93
2023/05/11 10:15:31;;;;;;;81.32;38.08;;;;;;;18.51;64.64;101500.22;5011476;28;20033;-93
2023/05/11 10:17:59;;;;;;;79.40;38.17;;;;;;;18.77;64.27;101502.13;5010545;28;20140;-93
2023/05/11 10:20:25;;;;;;;71.97;35.42;;;;;;;18.79;63.61;101483.28;5025771;28;20079;-92
2023/05/11 10:22:55;;;;;;;78.93;36.88;;;;;;;18.91;63.19;101493.22;5012776;28;20025;-92
2023/05/11 10:25:21;;;;;;;71.80;35.40;;;;;;;18.87;62.02;101491.69;5023150;28;20082;-92
2023/05/11 10:27:47;;;;;;;74.07;36.47;;;;;;;18.46;62.46;101494.28;5029688;28;20040;-93
2023/05/11 10:30:13;;;;;;;76.47;37.42;;;;;;;18.41;63.85;101483.84;5005887;28;20029;-93
2023/05/11 10:32:38;;;;;;;73.63;37.90;;;;;;;18.79;64.25;101483.28;5026028;28;20025;-93
2023/05/11 10:35:05;;;;;;;72.63;37.13;;;;;;;19.02;63.08;101484.47;5008391;28;20160;-92
2023/05/11 10:37:33;;;;;;;75.28;37.22;;;;;;;19.11;63.55;101494.59;5014399;28;20439;-92
2023/05/11 10:39:59;;;;;;;73.60;39.00;;;;;;;18.69;59.96;101498.22;5024240;28;20507;-93
2023/05/11 10:43:03;;;;;;;73.35;37.65;;;;;;;18.63;63.24;101495.91;5010150;28;20028;-92
2023/05/11 10:46:04;;;;;;;67.85;34.88;;;;;;;18.53;63.10;101499.16;5029767;28;20041;-93
2023/05/11 10:48:47;;;;;;;70.55;35.45;;;;;;;18.61;62.98;101494.19;5021975;28;20523;-93
2023/05/11 10:51:12;;;;;;;71.82;36.53;;;;;;;18.88;62.63;101488.03;5007630;28;20496;-93
2023/05/11 10:54:19;;;;;;;65.23;34.23;;;;;;;18.91;62.16;101493.22;5015506;28;20123;-92
2023/05/11 10:57:03;;;;;;;67.20;33.58;;;;;;;19.29;63.54;101492.50;4939948;28;20350;-93
2023/05/11 11:00:08;;;;;;;64.95;34.72;;;;;;;19.70;60.55;101484.41;4990665;28;20033;-93
2023/05/11 11:02:33;;;;;;;59.22;28.95;;;;;;;19.85;57.42;101477.13;5008850;28;20020;-92
2023/05/11 11:05:04;;;;;;;53.40;29.08;;;;;;;19.84;56.23;101484.31;5018937;28;20025;-92
2023/05/11 11:07:29;;;;;;;56.20;29.30;;;;;;;20.10;55.44;101484.34;4986148;28;20150;-93
2023/05/11 11:09:56;;;;;;;52.67;28.17;;;;;;;20.27;55.22;101470.56;5006776;28;20030;-94
2023/05/11 11:12:26;;;;;;;53.13;28.70;;;;;;;19.79;55.34;101490.97;4987085;28;20489;-94